Glad Valley, South Dakota
Current Conditions -  °F | °C
As of 8:53 AM on Saturday 20 Dec 2014 (Local Time) from KHEI Reporting Station
Overcast Overcast  
Wind Chill: 27°   Ceiling: 12000
Heat Index: 34°   Visibility: 10mi
Dew Point: 27°   Wind: 8mph
Humidity: 75%   Direction: 270°W
Pressure: 29.88"   Gusts: NA
Location:  45.4°N, 101.78°W
Report Text: KHEI 201553Z AUTO 27007KT 10SM OVC120 01/M03 A2988 RMK AO2 SLP148 T00111028
Loading
Personal Weather Stations






























Interactive Weather Map New forecast layout! Learn more

10-Day Weather Forecast

Advertisements
Track Severe Weather on mobile